sensor_id;sensor_type;location;lat;lon;timestamp;pressure;altitude;pressure_sealevel;temperature;humidity
73105;BME280;61296;50.526;30.792;2022-09-09T00:20:12;100147.22;;;7.96;67.49
73105;BME280;61296;50.526;30.792;2022-09-09T00:35:33;100148.13;;;7.76;68.48
73105;BME280;61296;50.526;30.792;2022-09-09T00:51:17;100156.88;;;7.57;69.39
73105;BME280;61296;50.526;30.792;2022-09-09T01:06:40;100157.63;;;7.33;70.05
73105;BME280;61296;50.526;30.792;2022-09-09T01:22:33;100180.09;;;7.39;70.29
73105;BME280;61296;50.526;30.792;2022-09-09T01:37:57;100172.09;;;7.21;70.73
73105;BME280;61296;50.526;30.792;2022-09-09T01:53:18;100175.00;;;7.16;71.49
73105;BME280;61296;50.526;30.792;2022-09-09T02:24:05;100168.25;;;7.02;71.94
73105;BME280;61296;50.526;30.792;2022-09-09T02:39:31;100174.16;;;6.71;72.50
73105;BME280;61296;50.526;30.792;2022-09-09T02:54:56;100169.94;;;6.52;73.44
73105;BME280;61296;50.526;30.792;2022-09-09T03:10:18;100177.66;;;6.29;74.24
73105;BME280;61296;50.526;30.792;2022-09-09T03:25:38;100195.63;;;6.01;75.44
73105;BME280;61296;50.526;30.792;2022-09-09T03:40:59;100175.75;;;5.92;75.93
73105;BME280;61296;50.526;30.792;2022-09-09T03:56:19;100187.69;;;6.17;75.15
73105;BME280;61296;50.526;30.792;2022-09-09T04:11:40;100186.38;;;6.44;73.84
73105;BME280;61296;50.526;30.792;2022-09-09T04:27:00;100202.63;;;6.70;73.75
73105;BME280;61296;50.526;30.792;2022-09-09T04:42:20;100206.28;;;6.74;73.29
73105;BME280;61296;50.526;30.792;2022-09-09T04:57:40;100229.00;;;6.86;74.08
73105;BME280;61296;50.526;30.792;2022-09-09T05:13:03;100248.63;;;7.75;71.29
73105;BME280;61296;50.526;30.792;2022-09-09T05:28:25;100241.94;;;8.83;67.17
73105;BME280;61296;50.526;30.792;2022-09-09T05:43:46;100227.41;;;9.50;65.28
73105;BME280;61296;50.526;30.792;2022-09-09T05:59:07;100221.28;;;9.57;63.31
73105;BME280;61296;50.526;30.792;2022-09-09T06:14:27;100242.44;;;10.16;62.02
73105;BME280;61296;50.526;30.792;2022-09-09T06:29:49;100230.81;;;10.54;60.90
73105;BME280;61296;50.526;30.792;2022-09-09T06:45:09;100266.06;;;11.38;58.75
73105;BME280;61296;50.526;30.792;2022-09-09T07:00:37;100264.50;;;11.79;57.59
73105;BME280;61296;50.526;30.792;2022-09-09T07:16:08;100283.50;;;12.80;54.16
73105;BME280;61296;50.526;30.792;2022-09-09T07:31:33;100278.84;;;13.44;49.80
73105;BME280;61296;50.526;30.792;2022-09-09T07:46:54;100265.19;;;13.92;46.99
73105;BME280;61296;50.526;30.792;2022-09-09T08:02:19;100227.34;;;14.03;43.52
73105;BME280;61296;50.526;30.792;2022-09-09T08:17:39;100271.88;;;14.31;43.23
73105;BME280;61296;50.526;30.792;2022-09-09T08:33:00;100260.59;;;14.51;43.63
73105;BME280;61296;50.526;30.792;2022-09-09T09:04:00;100242.56;;;14.75;42.10
73105;BME280;61296;50.526;30.792;2022-09-09T09:19:23;100236.34;;;14.92;40.20
73105;BME280;61296;50.526;30.792;2022-09-09T09:34:54;100208.31;;;15.04;39.95
73105;BME280;61296;50.526;30.792;2022-09-09T09:50:17;100262.22;;;15.28;39.76
73105;BME280;61296;50.526;30.792;2022-09-09T10:05:45;100221.81;;;15.16;39.20
73105;BME280;61296;50.526;30.792;2022-09-09T10:36:51;100218.03;;;15.64;38.44
73105;BME280;61296;50.526;30.792;2022-09-09T10:52:20;100224.00;;;15.87;37.63
73105;BME280;61296;50.526;30.792;2022-09-09T11:07:46;100235.94;;;16.16;37.03
73105;BME280;61296;50.526;30.792;2022-09-09T11:23:21;100205.41;;;16.16;36.74
73105;BME280;61296;50.526;30.792;2022-09-09T11:38:45;100187.56;;;16.17;36.37
73105;BME280;61296;50.526;30.792;2022-09-09T11:54:28;100216.47;;;16.48;36.49
73105;BME280;61296;50.526;30.792;2022-09-09T12:41:19;100159.81;;;16.06;34.42
73105;BME280;61296;50.526;30.792;2022-09-09T12:56:39;100194.28;;;16.48;34.86
73105;BME280;61296;50.526;30.792;2022-09-09T13:11:58;100193.84;;;16.46;34.84
73105;BME280;61296;50.526;30.792;2022-09-09T13:27:28;100172.84;;;16.45;35.49
73105;BME280;61296;50.526;30.792;2022-09-09T13:42:55;100199.06;;;16.37;36.76
73105;BME280;61296;50.526;30.792;2022-09-09T13:58:15;100189.13;;;16.29;37.45
73105;BME280;61296;50.526;30.792;2022-09-09T14:13:34;100180.00;;;16.25;36.50
73105;BME280;61296;50.526;30.792;2022-09-09T14:28:54;100171.69;;;16.10;36.46
73105;BME280;61296;50.526;30.792;2022-09-09T14:44:13;100124.16;;;15.87;37.03
73105;BME280;61296;50.526;30.792;2022-09-09T14:59:34;100166.16;;;15.96;37.61
73105;BME280;61296;50.526;30.792;2022-09-09T15:14:53;100151.91;;;15.76;38.41
73105;BME280;61296;50.526;30.792;2022-09-09T15:30:13;100149.06;;;15.55;38.47
73105;BME280;61296;50.526;30.792;2022-09-09T15:45:33;100186.34;;;15.72;38.67
73105;BME280;61296;50.526;30.792;2022-09-09T16:00:52;100158.16;;;15.52;38.72
73105;BME280;61296;50.526;30.792;2022-09-09T16:16:13;100160.88;;;15.27;39.59
73105;BME280;61296;50.526;30.792;2022-09-09T16:31:33;100143.72;;;14.89;40.31
73105;BME280;61296;50.526;30.792;2022-09-09T16:46:52;100101.66;;;14.55;41.19
73105;BME280;61296;50.526;30.792;2022-09-09T17:02:11;100186.88;;;14.90;41.79
73105;BME280;61296;50.526;30.792;2022-09-09T17:17:31;100160.22;;;14.61;42.43
73105;BME280;61296;50.526;30.792;2022-09-09T17:32:50;100188.53;;;14.40;42.97
73105;BME280;61296;50.526;30.792;2022-09-09T17:48:09;100215.34;;;14.32;43.25
73105;BME280;61296;50.526;30.792;2022-09-09T18:03:29;100151.81;;;13.92;43.51
73105;BME280;61296;50.526;30.792;2022-09-09T18:18:48;100201.28;;;14.00;43.70
73105;BME280;61296;50.526;30.792;2022-09-09T18:34:11;100209.84;;;13.88;44.12
73105;BME280;61296;50.526;30.792;2022-09-09T18:49:30;100160.09;;;13.47;44.69
73105;BME280;61296;50.526;30.792;2022-09-09T19:04:51;100152.81;;;13.28;45.30
73105;BME280;61296;50.526;30.792;2022-09-09T19:20:11;100118.25;;;12.75;46.00
73105;BME280;61296;50.526;30.792;2022-09-09T19:35:31;100165.84;;;12.98;46.33
73105;BME280;61296;50.526;30.792;2022-09-09T19:50:51;100149.63;;;12.63;47.61
73105;BME280;61296;50.526;30.792;2022-09-09T20:06:13;100106.34;;;12.10;48.67
73105;BME280;61296;50.526;30.792;2022-09-09T20:21:35;100150.84;;;12.39;48.98
73105;BME280;61296;50.526;30.792;2022-09-09T20:36:56;100183.72;;;12.21;49.59
73105;BME280;61296;50.526;30.792;2022-09-09T20:52:16;100222.06;;;12.07;51.23
73105;BME280;61296;50.526;30.792;2022-09-09T21:07:38;100224.25;;;11.55;54.88
73105;BME280;61296;50.526;30.792;2022-09-09T21:22:58;100200.44;;;10.66;60.50
73105;BME280;61296;50.526;30.792;2022-09-09T21:38:19;100197.31;;;10.17;65.73
73105;BME280;61296;50.526;30.792;2022-09-09T21:53:39;100117.13;;;8.89;72.94
73105;BME280;61296;50.526;30.792;2022-09-09T22:08:58;100190.56;;;9.08;77.71
73105;BME280;61296;50.526;30.792;2022-09-09T22:24:19;100094.53;;;8.80;74.33
73105;BME280;61296;50.526;30.792;2022-09-09T22:39:39;100192.25;;;9.12;77.51
73105;BME280;61296;50.526;30.792;2022-09-09T22:54:58;100154.50;;;8.41;80.60
73105;BME280;61296;50.526;30.792;2022-09-09T23:10:18;100177.22;;;8.29;83.69
73105;BME280;61296;50.526;30.792;2022-09-09T23:25:37;100126.88;;;7.61;87.50
73105;BME280;61296;50.526;30.792;2022-09-09T23:40:59;100120.47;;;7.32;89.80
73105;BME280;61296;50.526;30.792;2022-09-09T23:56:20;100092.25;;;7.07;90.31
